createdAt,value
2022-11-18T06:38:15.671Z,56.71
2022-11-18T06:41:08.623Z,49.79
2022-11-18T06:43:50.484Z,48.09
2022-11-18T06:46:50.729Z,47.96
2022-11-18T06:49:39.489Z,48.72
2022-11-18T06:52:27.470Z,49.59
2022-11-18T06:55:15.475Z,50.94
2022-11-18T06:57:49.618Z,51.81
2022-11-18T07:00:37.530Z,52.56
2022-11-18T07:03:19.493Z,52.60
2022-11-18T07:06:14.483Z,53.32
2022-11-18T07:09:02.489Z,54.01
2022-11-18T07:11:40.536Z,54.25
2022-11-18T07:14:28.491Z,55.13
2022-11-18T07:17:09.616Z,55.24
2022-11-18T07:19:57.488Z,55.93
2022-11-18T07:22:32.625Z,56.44
2022-11-18T07:25:20.696Z,57.64
2022-11-18T07:27:55.633Z,56.55
2022-11-18T07:30:43.476Z,55.96
2022-11-18T07:33:24.501Z,55.91
2022-11-18T07:36:29.663Z,56.13
2022-11-18T07:39:21.051Z,56.09
2022-11-18T07:42:09.489Z,56.06
2022-11-18T07:44:43.916Z,56.41
2022-11-18T07:47:31.685Z,56.34
2022-11-18T07:50:07.940Z,56.22
2022-11-18T07:52:55.499Z,56.87
2022-11-18T07:55:32.330Z,57.27
2022-11-18T07:58:20.485Z,57.50
2022-11-18T08:01:01.791Z,57.97
2022-11-18T08:03:43.778Z,58.17
2022-11-18T08:06:26.689Z,57.76
2022-11-18T08:09:08.632Z,57.87
2022-11-18T08:11:49.493Z,58.35
2022-11-18T08:14:30.839Z,58.41
2022-11-18T08:17:12.473Z,61.16
2022-11-18T16:10:46.285Z,40.00
2022-11-18T16:13:34.084Z,32.84
2022-11-18T16:16:15.988Z,33.46
2022-11-18T16:19:09.037Z,35.11
2022-11-18T16:21:54.005Z,37.02
2022-11-18T16:24:48.884Z,39.05
2022-11-18T16:27:43.876Z,41.55
2022-11-18T16:30:49.870Z,43.66
2022-11-18T16:33:31.874Z,45.69
2022-11-18T16:36:19.865Z,47.28
2022-11-18T16:38:55.040Z,48.67
2022-11-18T16:41:43.864Z,49.84
2022-11-18T16:44:27.869Z,50.78
2022-11-18T16:47:22.864Z,52.14
2022-11-18T16:50:11.871Z,53.00
2022-11-18T16:52:46.044Z,53.75
2022-11-18T16:55:35.223Z,54.72
2022-11-18T16:58:19.018Z,55.38
2022-11-18T17:01:20.893Z,55.77
2022-11-18T17:04:10.046Z,56.30
2022-11-18T17:06:55.400Z,56.78
2022-11-18T17:09:51.876Z,57.50
2022-11-18T17:12:41.551Z,58.36
2022-11-18T17:15:16.993Z,59.09
